Welcome to the updated website with new and more accurate equipment. Established 2007


Active alerts

Marquette
  Details for Marquette Special Weather Statement

Local Station more information Local Station


Mount Mesnard more information Mount Mesnard


Visit our other weather sites:

Template documentation
and downloads

And another site


CBI


Nearby METAR Reports

   
KSAW - Sawyer, Michigan
Updated: 21-01-2019 06:45
Overcast  
Overcast  
   Wind: WSW 6.9 mph
Wind: WSW 6.9 mph
Temperature: 5°F
Wind Chill: -7.6°F
Dew Point: 1.4°F
Humidity: 85%
Barometer: 30.43 inHg
Clouds: Overcast
Visibility: 10 mi
Cloud details: Overcast 610 m
KSAW 211145Z 25006KT 10SM OVC020 M15/M17 A3043
KESC - Escanaba, Michigan
Updated: 21-01-2019 06:56
Overcast  
Overcast  
   Wind: West 3.5 mph
Wind: West 3.5 mph
Temperature: -2.2°F
Wind Chill: -9.4°F
Dew Point: -5.8°F
Humidity: 84%
Barometer: 30.53 inHg
Clouds: Overcast
Visibility: 10 mi
Cloud details: Overcast 823 m
KESC 211156Z AUTO 28003KT 10SM OVC027 M19/M21 A3053 RMK AO2 SLP368 60000 T11891211 11183 21200 53009 FZRANO
KIMT - Iron Mountain, MI
Updated: 21-01-2019 06:54
Overcast  
Overcast  
   Wind: Calm
Wind: Calm
Temperature: -7.6°F
Dew Point: -13°F
Humidity: 77%
Barometer: 30.46 inHg
Clouds: Overcast
Visibility: 10 mi
Cloud details: Overcast 701 m
KIMT 211154Z AUTO 00000KT 10SM OVC023 M22/M25 A3046 RMK AO2 SLP351 T12221250 11211 21250 53010 $
KGRB - Green Bay, WI
Updated: 21-01-2019 06:53
Clear  
Clear  
   Wind: Calm
Wind: Calm
Temperature: -2.2°F
Dew Point: -9.4°F
Humidity: 71%
Barometer: 30.53 inHg
Clouds: Clear
Visibility: 10 mi
Cloud details: Clear
KGRB 211153Z 00000KT 10SM CLR M19/M23 A3053 RMK AO2 SLP358 T11891233 11167 21194 53006 $
KDET - Detroit, MI
Updated: 21-01-2019 06:53
Clear  
Clear  
   Wind: NW 8.1 mph
Wind: NW 8.1 mph
Temperature: -4°F
Wind Chill: -18.4°F
Dew Point: -11.2°F
Humidity: 71%
Barometer: 30.46 inHg
Clouds: Clear
Visibility: 10 mi
Cloud details: Clear
KDET 211153Z 32007KT 10SM CLR M20/M24 A3046 RMK AO2 SLP332 T12001244 11183 21200 53021
 

Script developed by  Saratoga-weather.org Adapted for the template by  Weerstation Leuven

You find our weather info also at:

Weather Underground

Midwestern Weather Network

WeatherlinkIP

Citizen Weather Observer Program (CWOP)

Equipment we use:

Weather-station
Davis VP2

Weather-program
Davis Weatherlink.Com

Davis VP2

Davis Weatherlink.Com